createdAt,value
2022-12-08T00:01:11.084Z,6.40
2022-12-08T00:03:38.636Z,6.78
2022-12-08T00:06:26.870Z,4.82
2022-12-08T00:09:13.346Z,6.68
2022-12-08T00:11:39.953Z,6.93
2022-12-08T00:14:06.517Z,4.20
2022-12-08T00:16:33.133Z,6.30
2022-12-08T00:18:59.776Z,6.18
2022-12-08T00:21:26.326Z,5.55
2022-12-08T00:23:55.347Z,4.63
2022-12-08T00:26:22.347Z,4.75
2022-12-08T00:28:49.019Z,4.82
2022-12-08T00:31:15.701Z,5.90
2022-12-08T00:33:42.441Z,5.90
2022-12-08T00:36:11.263Z,8.45
2022-12-08T00:38:38.915Z,8.27
2022-12-08T00:41:15.764Z,8.02
2022-12-08T00:43:42.714Z,7.22
2022-12-08T00:46:09.507Z,6.22
2022-12-08T00:48:36.122Z,5.55
2022-12-08T00:51:02.745Z,7.97
2022-12-08T00:53:30.963Z,8.13
2022-12-08T00:55:57.533Z,6.00
2022-12-08T00:58:24.071Z,5.20
2022-12-08T01:00:50.674Z,4.82
2022-12-08T01:03:17.365Z,4.35
2022-12-08T01:05:44.527Z,7.13
2022-12-08T01:08:11.192Z,6.85
2022-12-08T01:10:39.470Z,6.07
2022-12-08T01:13:06.223Z,6.18
2022-12-08T01:15:32.812Z,7.18
2022-12-08T01:17:59.343Z,5.45
2022-12-08T01:20:26.076Z,6.85
2022-12-08T01:22:52.615Z,6.18
2022-12-08T01:25:19.208Z,6.57
2022-12-08T01:27:45.764Z,6.13
2022-12-08T01:30:13.347Z,6.47
2022-12-08T01:32:39.931Z,4.28
2022-12-08T01:35:06.901Z,6.90
2022-12-08T01:37:33.449Z,4.72
2022-12-08T01:40:00.041Z,6.18
2022-12-08T01:42:26.892Z,5.68
2022-12-08T01:44:57.567Z,6.30
2022-12-08T01:47:27.404Z,5.93
2022-12-08T01:49:54.144Z,4.97
2022-12-08T01:52:29.196Z,5.03
2022-12-08T01:55:02.770Z,5.63
2022-12-08T01:57:35.128Z,8.18
2022-12-08T02:00:07.869Z,4.80
2022-12-08T02:02:42.102Z,6.55
2022-12-08T02:05:11.471Z,6.25
2022-12-08T02:07:38.268Z,4.72
2022-12-08T02:10:05.804Z,7.10
2022-12-08T02:12:33.062Z,6.10
2022-12-08T02:15:04.829Z,8.35
2022-12-08T02:17:58.453Z,7.18
2022-12-08T02:20:53.376Z,6.47
2022-12-08T02:23:37.139Z,5.72
2022-12-08T02:29:26.899Z,4.82
2022-12-08T02:34:45.612Z,4.95
2022-12-08T02:37:23.168Z,4.95
2022-12-08T02:42:50.967Z,4.53
2022-12-08T02:45:40.644Z,4.82
2022-12-08T02:48:08.933Z,4.70
2022-12-08T02:50:35.486Z,4.75
2022-12-08T02:53:02.979Z,5.30
2022-12-08T03:03:45.464Z,6.65
2022-12-08T03:06:39.764Z,4.53
2022-12-08T03:09:45.711Z,4.10
2022-12-08T03:14:53.247Z,5.70
2022-12-08T03:17:23.545Z,6.38
2022-12-08T03:19:50.243Z,4.50
2022-12-08T03:22:22.180Z,4.65
2022-12-08T03:24:49.413Z,4.60
2022-12-08T03:27:20.120Z,6.55
2022-12-08T03:29:48.909Z,4.65
2022-12-08T03:34:54.522Z,6.53
2022-12-08T03:37:21.569Z,5.13
2022-12-08T03:39:48.525Z,4.90
2022-12-08T03:42:15.158Z,4.97
2022-12-08T03:44:41.705Z,4.82
2022-12-08T03:47:08.259Z,6.63
2022-12-08T03:49:34.827Z,4.32
2022-12-08T03:52:01.367Z,4.70
2022-12-08T03:54:27.974Z,4.55
2022-12-08T03:56:54.676Z,5.10
2022-12-08T03:59:21.258Z,7.05
2022-12-08T04:01:47.838Z,6.20
2022-12-08T04:04:14.456Z,6.20
2022-12-08T04:06:41.035Z,6.40
2022-12-08T04:09:07.660Z,6.68
2022-12-08T04:11:34.186Z,6.38
2022-12-08T04:14:00.842Z,4.70
2022-12-08T04:16:28.553Z,4.63
2022-12-08T04:18:55.331Z,4.68
2022-12-08T04:21:22.019Z,4.38
2022-12-08T04:23:48.668Z,4.82
2022-12-08T04:26:15.858Z,6.25
2022-12-08T04:28:42.808Z,4.47
2022-12-08T04:31:09.713Z,6.70
2022-12-08T04:33:36.573Z,4.88
2022-12-08T04:36:04.836Z,6.05
2022-12-08T04:38:32.320Z,7.05
2022-12-08T04:40:58.927Z,5.93
2022-12-08T04:43:25.710Z,5.35
2022-12-08T04:45:52.306Z,7.45
2022-12-08T04:48:18.960Z,7.30
2022-12-08T04:50:46.066Z,5.38
2022-12-08T04:53:13.796Z,5.38
2022-12-08T04:55:44.154Z,5.80
2022-12-08T04:58:14.066Z,6.80
2022-12-08T05:00:41.425Z,5.15
2022-12-08T05:03:08.041Z,6.60
2022-12-08T05:05:34.652Z,5.75
2022-12-08T05:08:01.354Z,5.22
2022-12-08T05:10:28.018Z,6.28
2022-12-08T05:12:54.682Z,4.53
2022-12-08T05:15:21.310Z,5.78
2022-12-08T05:17:47.846Z,6.45
2022-12-08T05:20:14.498Z,5.07
2022-12-08T05:22:41.157Z,6.65
2022-12-08T05:25:08.082Z,5.90
2022-12-08T05:27:34.978Z,4.68
2022-12-08T05:30:02.227Z,5.05
2022-12-08T05:32:29.162Z,4.78
2022-12-08T05:34:55.772Z,4.80
2022-12-08T05:37:22.308Z,4.70
2022-12-08T05:39:48.856Z,6.32
2022-12-08T05:42:16.723Z,5.50
2022-12-08T05:44:44.891Z,5.65
2022-12-08T05:47:11.410Z,5.72
2022-12-08T05:49:37.994Z,6.70
2022-12-08T05:52:04.708Z,6.43
2022-12-08T05:54:31.251Z,7.07
2022-12-08T05:56:57.802Z,5.80
2022-12-08T05:59:24.470Z,4.95
2022-12-08T06:01:51.090Z,7.07
2022-12-08T06:04:17.651Z,5.03
2022-12-08T06:06:44.206Z,7.80
2022-12-08T06:09:12.465Z,7.13
2022-12-08T06:11:39.236Z,6.13
2022-12-08T06:14:10.148Z,7.40
2022-12-08T06:19:03.292Z,5.15
2022-12-08T06:21:29.914Z,6.38
2022-12-08T06:23:56.486Z,11.40
2022-12-08T06:26:23.660Z,16.55
2022-12-08T06:28:50.367Z,15.02
2022-12-08T06:31:20.067Z,15.15
2022-12-08T06:33:47.487Z,14.82
2022-12-08T06:36:16.709Z,14.45
2022-12-08T06:38:44.052Z,13.57
2022-12-08T06:41:12.088Z,10.93
2022-12-08T06:43:38.767Z,7.38
2022-12-08T06:46:07.865Z,8.07
2022-12-08T06:48:34.740Z,8.35
2022-12-08T06:51:12.331Z,6.45
2022-12-08T06:53:39.577Z,5.78
2022-12-08T06:56:07.297Z,4.72
2022-12-08T06:58:35.022Z,4.75
2022-12-08T07:01:08.412Z,5.28
2022-12-08T07:03:36.159Z,5.70
2022-12-08T07:06:04.291Z,5.10
2022-12-08T07:08:32.611Z,3.97
2022-12-08T07:10:59.580Z,7.22
2022-12-08T07:13:26.309Z,7.88
2022-12-08T07:15:52.878Z,5.20
2022-12-08T07:18:19.411Z,7.60
2022-12-08T07:20:46.019Z,9.75
2022-12-08T07:23:12.636Z,7.05
2022-12-08T07:25:39.237Z,5.07
2022-12-08T07:28:11.315Z,8.02
2022-12-08T07:30:39.068Z,12.88
2022-12-08T07:33:06.653Z,9.77
2022-12-08T07:35:35.068Z,6.30
2022-12-08T07:38:02.027Z,6.13
2022-12-08T07:40:28.620Z,6.50
2022-12-08T07:42:55.278Z,9.48
2022-12-08T07:45:23.663Z,9.93
2022-12-08T07:47:54.801Z,17.35
2022-12-08T07:50:21.315Z,24.58
2022-12-08T07:52:48.883Z,27.52
2022-12-08T07:55:15.432Z,19.98
2022-12-08T07:57:42.373Z,18.00
2022-12-08T08:00:10.906Z,10.77
2022-12-08T08:02:37.571Z,8.88
2022-12-08T08:05:04.557Z,7.07
2022-12-08T08:07:31.642Z,7.13
2022-12-08T08:09:58.296Z,9.18
2022-12-08T08:12:32.798Z,8.38
2022-12-08T08:15:01.147Z,10.10
2022-12-08T08:17:28.995Z,11.65
2022-12-08T08:19:55.842Z,8.93
2022-12-08T08:22:22.428Z,9.77
2022-12-08T08:24:48.959Z,11.45
2022-12-08T08:27:15.494Z,9.70
2022-12-08T08:29:42.120Z,10.80
2022-12-08T08:32:08.861Z,10.73
2022-12-08T08:34:35.399Z,10.18
2022-12-08T08:37:02.039Z,8.80
2022-12-08T08:39:30.192Z,10.20
2022-12-08T08:41:56.718Z,7.97
2022-12-08T08:44:23.586Z,7.57
2022-12-08T08:46:50.181Z,7.90
2022-12-08T08:49:16.798Z,8.68
2022-12-08T08:51:43.853Z,8.27
2022-12-08T08:54:10.625Z,7.88
2022-12-08T08:56:37.192Z,12.05
2022-12-08T08:59:04.156Z,13.32
2022-12-08T09:01:31.010Z,12.55
2022-12-08T09:03:58.213Z,16.80
2022-12-08T09:06:25.963Z,17.73
2022-12-08T09:08:52.630Z,14.88
2022-12-08T09:11:19.216Z,13.98
2022-12-08T09:13:50.278Z,13.65
2022-12-08T09:16:18.146Z,13.60
2022-12-08T09:18:44.923Z,12.93
2022-12-08T09:21:16.571Z,10.60
2022-12-08T09:23:43.701Z,11.80
2022-12-08T09:26:10.335Z,10.10
2022-12-08T09:28:37.459Z,10.20
2022-12-08T09:31:04.487Z,9.43
2022-12-08T09:33:31.630Z,8.90
2022-12-08T09:36:02.781Z,11.60
2022-12-08T09:38:29.354Z,10.63
2022-12-08T09:40:56.357Z,10.73
2022-12-08T09:43:53.148Z,9.50
2022-12-08T09:46:20.812Z,9.07
2022-12-08T09:48:55.741Z,9.27
2022-12-08T09:51:25.433Z,10.50
2022-12-08T09:53:56.683Z,11.18
2022-12-08T09:56:26.956Z,9.20
2022-12-08T09:58:58.329Z,9.50
2022-12-08T10:01:30.190Z,8.57
2022-12-08T10:03:57.149Z,8.68
2022-12-08T10:17:49.204Z,5.03
2022-12-08T10:20:20.115Z,5.07
2022-12-08T10:22:53.267Z,5.90
2022-12-08T10:25:28.155Z,5.63
2022-12-08T10:27:55.173Z,6.43
2022-12-08T10:30:22.350Z,6.78
2022-12-08T10:32:51.372Z,5.85
2022-12-08T10:35:19.858Z,5.43
2022-12-08T10:38:06.388Z,4.70
2022-12-08T10:40:43.801Z,6.70
2022-12-08T10:43:17.637Z,6.57
2022-12-08T10:45:45.058Z,5.90
2022-12-08T10:53:32.316Z,6.60
2022-12-08T11:14:29.548Z,10.60
2022-12-08T11:17:04.777Z,7.13
2022-12-08T11:19:31.596Z,6.22
2022-12-08T11:21:58.149Z,6.13
2022-12-08T11:24:28.616Z,6.35
2022-12-08T11:27:04.342Z,4.32
2022-12-08T11:29:33.849Z,3.40
2022-12-08T11:32:11.349Z,3.47
2022-12-08T11:34:45.862Z,3.50
2022-12-08T11:37:37.444Z,3.70
2022-12-08T11:40:08.980Z,4.40
2022-12-08T11:42:44.250Z,3.65
2022-12-08T11:45:20.217Z,2.55
2022-12-08T11:47:55.977Z,2.85
2022-12-08T11:50:31.655Z,3.55
2022-12-08T11:52:59.841Z,3.28
2022-12-08T11:55:50.011Z,2.50
2022-12-08T11:58:22.836Z,2.50
2022-12-08T12:00:50.113Z,2.70
2022-12-08T12:03:40.569Z,2.67
2022-12-08T12:17:43.584Z,4.15
2022-12-08T12:20:19.569Z,4.35
2022-12-08T12:22:52.201Z,3.35
2022-12-08T12:25:23.707Z,4.20
2022-12-08T12:27:57.156Z,4.85
2022-12-08T12:30:26.652Z,5.57
2022-12-08T12:32:58.263Z,4.70
2022-12-08T12:35:33.055Z,5.85
2022-12-08T12:38:25.464Z,4.43
2022-12-08T12:41:01.176Z,3.65
2022-12-08T12:43:33.354Z,5.18
2022-12-08T12:49:38.942Z,6.20
2022-12-08T12:57:38.624Z,9.45
2022-12-08T13:05:32.232Z,2.70
2022-12-08T13:10:36.607Z,2.35
2022-12-08T13:18:34.213Z,3.55
2022-12-08T13:21:15.970Z,3.47
2022-12-08T13:23:50.484Z,2.20
2022-12-08T13:37:00.212Z,1.42
2022-12-08T13:39:32.549Z,3.58
2022-12-08T13:42:05.682Z,2.95
2022-12-08T13:47:41.431Z,3.05
2022-12-08T13:52:33.071Z,5.63
2022-12-08T13:54:35.413Z,3.58
2022-12-08T13:57:00.011Z,4.32
2022-12-08T13:59:10.081Z,5.85
2022-12-08T14:01:45.127Z,4.82
2022-12-08T14:04:54.566Z,4.38
2022-12-08T14:07:05.523Z,4.65
2022-12-08T14:09:36.843Z,4.70
2022-12-08T14:12:08.558Z,4.43
2022-12-08T14:15:02.436Z,4.63
2022-12-08T14:17:29.440Z,4.50
2022-12-08T14:22:37.069Z,4.38
2022-12-08T14:25:05.494Z,3.10
2022-12-08T14:27:35.089Z,4.60
2022-12-08T14:30:05.186Z,3.88
2022-12-08T14:32:34.894Z,3.58
2022-12-08T14:37:43.479Z,5.95
2022-12-08T14:45:50.774Z,8.05
2022-12-08T14:48:20.960Z,2.67
2022-12-08T14:51:04.459Z,3.00
2022-12-08T14:53:41.812Z,3.53
2022-12-08T14:56:17.694Z,3.40
2022-12-08T14:58:45.013Z,5.53
2022-12-08T15:01:17.092Z,3.53
2022-12-08T15:03:50.428Z,2.83
2022-12-08T15:06:20.626Z,4.32
2022-12-08T15:08:55.278Z,3.70
2022-12-08T15:13:57.895Z,3.58
2022-12-08T15:19:16.596Z,6.20
2022-12-08T15:21:44.622Z,6.80
2022-12-08T15:24:13.039Z,6.55
2022-12-08T15:26:44.487Z,5.82
2022-12-08T15:29:19.167Z,3.92
2022-12-08T15:31:45.834Z,5.35
2022-12-08T15:34:12.423Z,3.72
2022-12-08T15:36:40.043Z,3.80
2022-12-08T15:39:19.295Z,3.20
2022-12-08T15:41:45.808Z,3.72
2022-12-08T15:44:12.362Z,3.88
2022-12-08T15:46:38.911Z,2.97
2022-12-08T15:49:05.541Z,6.20
2022-12-08T15:51:36.441Z,4.95
2022-12-08T15:54:02.996Z,3.67
2022-12-08T15:56:29.644Z,5.93
2022-12-08T15:58:57.678Z,3.75
2022-12-08T16:01:24.923Z,3.70
2022-12-08T16:12:22.906Z,4.13
2022-12-08T16:17:37.972Z,3.85
2022-12-08T16:20:07.468Z,3.88
2022-12-08T16:25:22.563Z,7.40
2022-12-08T16:28:36.960Z,7.38
2022-12-08T16:30:38.850Z,6.97
2022-12-08T16:33:05.496Z,9.18
2022-12-08T16:35:32.064Z,4.70
2022-12-08T16:37:58.692Z,5.63
2022-12-08T16:40:25.405Z,7.15
2022-12-08T16:42:51.957Z,3.25
2022-12-08T16:45:23.350Z,2.28
2022-12-08T16:50:29.560Z,6.90
2022-12-08T16:53:00.390Z,4.00
2022-12-08T16:55:27.265Z,5.88
2022-12-08T16:57:54.341Z,5.10
2022-12-08T17:00:23.966Z,4.82
2022-12-08T17:02:51.386Z,4.22
2022-12-08T17:05:20.129Z,5.30
2022-12-08T17:07:48.721Z,6.30
2022-12-08T17:10:18.872Z,6.05
2022-12-08T17:12:46.436Z,8.68
2022-12-08T17:15:17.488Z,7.55
2022-12-08T17:17:44.133Z,7.28
2022-12-08T17:20:15.052Z,6.97
2022-12-08T17:22:41.859Z,5.32
2022-12-08T17:25:09.586Z,6.03
2022-12-08T17:27:37.034Z,5.03
2022-12-08T17:30:05.454Z,4.70
2022-12-08T17:32:32.327Z,3.67
2022-12-08T17:34:58.978Z,4.70
2022-12-08T17:37:25.616Z,4.03
2022-12-08T17:39:52.171Z,4.63
2022-12-08T17:42:18.711Z,4.53
2022-12-08T17:44:46.685Z,3.45
2022-12-08T17:47:13.302Z,4.53
2022-12-08T17:49:39.942Z,3.45
2022-12-08T17:52:06.976Z,5.18
2022-12-08T17:54:34.012Z,7.40
2022-12-08T17:57:00.805Z,7.47
2022-12-08T17:59:28.846Z,5.80
2022-12-08T18:01:57.134Z,5.30
2022-12-08T18:04:25.402Z,5.35
2022-12-08T18:06:52.363Z,4.50
2022-12-08T18:09:19.263Z,4.28
2022-12-08T18:11:46.713Z,3.78
2022-12-08T18:14:14.229Z,4.45
2022-12-08T18:16:44.025Z,4.32
2022-12-08T18:19:12.462Z,5.00
2022-12-08T18:21:39.679Z,4.95
2022-12-08T18:24:07.268Z,5.13
2022-12-08T18:26:33.963Z,4.97
2022-12-08T18:29:00.860Z,4.65
2022-12-08T18:31:27.603Z,4.88
2022-12-08T18:33:54.235Z,5.05
2022-12-08T18:36:24.487Z,4.60
2022-12-08T18:38:52.097Z,6.78
2022-12-08T18:41:24.582Z,6.20
2022-12-08T18:43:52.486Z,5.75
2022-12-08T18:46:19.077Z,5.88
2022-12-08T18:48:48.551Z,5.00
2022-12-08T18:51:17.915Z,6.90
2022-12-08T18:53:45.169Z,4.35
2022-12-08T18:56:29.943Z,5.88
2022-12-08T18:59:03.141Z,5.32
2022-12-08T19:01:32.860Z,3.28
2022-12-08T19:06:47.657Z,3.30
2022-12-08T19:09:14.328Z,3.53
2022-12-08T19:11:41.755Z,5.28
2022-12-08T19:14:08.772Z,5.47
2022-12-08T19:16:35.626Z,4.47
2022-12-08T19:19:02.772Z,5.75
2022-12-08T19:21:29.882Z,4.03
2022-12-08T19:23:58.440Z,4.10
2022-12-08T19:26:26.477Z,4.25
2022-12-08T19:28:53.116Z,3.97
2022-12-08T19:31:20.233Z,4.18
2022-12-08T19:33:46.879Z,4.07
2022-12-08T19:36:17.910Z,3.38
2022-12-08T19:39:04.911Z,4.13
2022-12-08T19:41:51.926Z,3.33
2022-12-08T19:44:43.696Z,4.40
2022-12-08T19:47:10.360Z,2.30
2022-12-08T19:49:37.519Z,4.15
2022-12-08T19:52:04.875Z,3.65
2022-12-08T19:54:31.631Z,3.75
2022-12-08T19:56:58.519Z,4.43
2022-12-08T19:59:26.476Z,4.05
2022-12-08T20:01:55.883Z,3.47
2022-12-08T20:04:23.976Z,4.55
2022-12-08T20:06:51.897Z,4.47
2022-12-08T20:09:19.498Z,4.15
2022-12-08T20:11:46.086Z,4.40
2022-12-08T20:14:12.883Z,4.20
2022-12-08T20:16:41.729Z,2.55
2022-12-08T20:19:09.106Z,4.57
2022-12-08T20:21:35.676Z,1.98
2022-12-08T20:24:02.188Z,2.95
2022-12-08T20:26:28.734Z,2.47
2022-12-08T20:28:55.303Z,3.85
2022-12-08T20:31:26.118Z,3.85
2022-12-08T20:33:52.949Z,3.15
2022-12-08T20:36:21.744Z,4.60
2022-12-08T20:38:51.605Z,4.65
2022-12-08T20:41:19.598Z,5.38
2022-12-08T20:43:48.027Z,4.97
2022-12-08T20:46:16.455Z,4.70
2022-12-08T20:48:44.195Z,3.88
2022-12-08T20:51:16.751Z,2.17
2022-12-08T20:53:43.805Z,2.05
2022-12-08T20:56:16.499Z,3.25
2022-12-08T20:58:43.298Z,1.92
2022-12-08T21:01:12.319Z,4.88
2022-12-08T21:03:39.862Z,4.85
2022-12-08T21:06:07.467Z,4.47
2022-12-08T21:08:34.847Z,3.70
2022-12-08T21:11:02.626Z,4.57
2022-12-08T21:13:29.524Z,4.68
2022-12-08T21:15:56.426Z,4.60
2022-12-08T21:18:23.840Z,4.18
2022-12-08T21:20:51.653Z,5.93
2022-12-08T21:23:19.165Z,6.57
2022-12-08T21:25:47.263Z,6.50
2022-12-08T21:28:14.179Z,6.43
2022-12-08T21:30:41.965Z,7.43
2022-12-08T21:33:09.636Z,3.90
2022-12-08T21:35:36.987Z,6.40
2022-12-08T21:38:06.447Z,5.07
2022-12-08T21:40:35.234Z,5.15
2022-12-08T21:43:03.493Z,4.10
2022-12-08T21:45:30.494Z,4.95
2022-12-08T21:47:59.329Z,5.38
2022-12-08T21:50:26.586Z,4.68
2022-12-08T21:52:53.248Z,5.00
2022-12-08T21:55:20.429Z,5.38
2022-12-08T21:57:47.492Z,5.47
2022-12-08T22:00:16.966Z,5.50
2022-12-08T22:02:44.258Z,5.97
2022-12-08T22:05:11.562Z,5.30
2022-12-08T22:07:39.983Z,6.32
2022-12-08T22:10:08.492Z,5.30
2022-12-08T22:12:36.781Z,4.90
2022-12-08T22:15:05.807Z,5.93
2022-12-08T22:17:37.263Z,5.75
2022-12-08T22:20:06.625Z,6.03
2022-12-08T22:22:34.895Z,5.45
2022-12-08T22:25:04.035Z,6.05
2022-12-08T22:27:31.203Z,5.05
2022-12-08T22:29:57.883Z,4.28
2022-12-08T22:32:24.814Z,4.53
2022-12-08T22:34:51.576Z,4.68
2022-12-08T22:37:18.250Z,5.88
2022-12-08T22:39:45.003Z,6.40
2022-12-08T22:42:11.659Z,6.25
2022-12-08T22:44:38.460Z,5.10
2022-12-08T22:47:05.133Z,5.18
2022-12-08T22:49:31.816Z,4.93
2022-12-08T22:51:58.577Z,6.13
2022-12-08T22:54:25.373Z,4.97
2022-12-08T22:56:51.946Z,5.50
2022-12-08T22:59:18.585Z,4.85
2022-12-08T23:01:45.363Z,6.53
2022-12-08T23:04:17.515Z,6.75
2022-12-08T23:06:44.836Z,5.60
2022-12-08T23:09:11.965Z,5.75
2022-12-08T23:11:38.728Z,6.05
2022-12-08T23:14:05.314Z,5.55
2022-12-08T23:16:33.628Z,5.97
2022-12-08T23:19:00.383Z,5.75
2022-12-08T23:21:27.114Z,4.82
2022-12-08T23:23:53.974Z,4.78
2022-12-08T23:26:23.869Z,4.85
2022-12-08T23:28:51.102Z,3.38
2022-12-08T23:31:17.868Z,3.35
2022-12-08T23:33:44.772Z,5.38
2022-12-08T23:36:12.983Z,4.68
2022-12-08T23:38:39.522Z,2.63
2022-12-08T23:41:08.180Z,3.75
2022-12-08T23:43:35.414Z,4.25
2022-12-08T23:46:02.761Z,3.78
2022-12-08T23:48:29.698Z,4.95
2022-12-08T23:50:57.158Z,5.25
2022-12-08T23:53:24.005Z,4.72
2022-12-08T23:55:53.270Z,5.30
2022-12-08T23:58:21.187Z,4.70
